Time;durP1;ratioP1;P1;durP2;ratioP2;P2;SDS_P1;SDS_P2;PMS_P1;PMS_P2;Temp;Humidity;BMP_temperature;BMP_pressure;BME280_temperature;BME280_humidity;BME280_pressure;Samples;Min_cycle;Max_cycle;Signal;HPM_P1;HPM_P2
2021/12/11 00:01:16;;;;;;;1999.90;999.90;;;;;;;2.32;81.03;99969.72;15584629;28;20054;-68
2021/12/11 00:08:56;;;;;;;1999.90;999.90;;;;;;;2.24;80.55;99987.72;15626160;28;20042;-67
2021/12/11 00:17:01;;;;;;;1999.90;999.90;;;;;;;2.37;80.16;99999.94;15609763;28;20380;-66
2021/12/11 00:25:00;;;;;;;1999.90;999.90;;;;;;;2.79;78.76;100007.31;15573909;28;20050;-66
2021/12/11 00:32:43;;;;;;;1999.90;999.90;;;;;;;2.88;78.72;100026.75;15640663;28;20404;-67
2021/12/11 00:40:20;;;;;;;1999.90;999.90;;;;;;;3.08;77.21;100025.63;15577279;28;20578;-66
2021/12/11 00:48:00;;;;;;;1999.90;999.90;;;;;;;2.29;79.41;100037.22;15581374;28;20091;-67
2021/12/11 00:55:35;;;;;;;1999.90;999.90;;;;;;;2.85;77.84;100050.22;15613454;28;20082;-66
2021/12/11 01:03:19;;;;;;;1999.90;999.90;;;;;;;2.98;77.20;100070.69;15591253;28;20507;-67
2021/12/11 01:11:08;;;;;;;1999.90;999.90;;;;;;;3.13;76.40;100081.50;15571089;28;20049;-66
2021/12/11 01:18:47;;;;;;;1999.90;999.90;;;;;;;2.83;77.51;100085.53;15592860;28;20037;-66
2021/12/11 01:26:23;;;;;;;1999.90;999.90;;;;;;;2.46;78.55;100099.22;15625656;28;20048;-66
2021/12/11 01:34:00;;;;;;;1999.90;999.90;;;;;;;2.35;78.88;100101.28;15629268;28;20069;-67
2021/12/11 01:41:34;;;;;;;1999.90;999.90;;;;;;;2.52;77.95;100122.84;15597242;28;20041;-67
2021/12/11 01:49:11;;;;;;;;;;;;;;;3.00;76.96;100126.34;15617049;28;20045;-68
2021/12/11 01:56:47;;;;;;;1999.90;999.90;;;;;;;2.36;78.84;100140.66;15586054;28;20284;-66
2021/12/11 02:04:25;;;;;;;1999.90;999.90;;;;;;;2.90;77.06;100152.09;15590618;28;20056;-66
2021/12/11 02:12:05;;;;;;;1999.90;999.90;;;;;;;2.94;76.60;100157.03;15646440;28;20053;-67
2021/12/11 02:19:39;;;;;;;1999.90;999.90;;;;;;;2.93;76.72;100161.72;15584368;28;20057;-67
2021/12/11 02:27:27;;;;;;;1999.90;999.90;;;;;;;2.76;77.22;100176.00;15621979;28;20048;-67
2021/12/11 02:35:13;;;;;;;1999.90;999.90;;;;;;;2.69;77.70;100180.22;15624264;28;20136;-67
2021/12/11 02:42:57;;;;;;;1999.90;999.90;;;;;;;3.03;76.50;100180.91;15575771;28;20049;-67
2021/12/11 02:50:35;;;;;;;1999.90;999.90;;;;;;;2.93;76.30;100194.81;15615486;28;20045;-67
2021/12/11 02:58:17;;;;;;;1999.90;999.90;;;;;;;2.83;76.70;100195.75;15578781;28;20125;-67
2021/12/11 03:06:21;;;;;;;1999.90;999.90;;;;;;;2.78;77.16;100204.06;15574922;28;20783;-68
2021/12/11 03:13:58;;;;;;;1999.90;999.90;;;;;;;2.85;76.78;100214.75;15609578;28;20053;-68
2021/12/11 03:21:31;;;;;;;1999.90;999.90;;;;;;;2.65;78.08;100221.31;15568540;28;20060;-67
2021/12/11 03:29:12;;;;;;;1999.90;999.90;;;;;;;2.69;77.33;100229.78;15614866;28;20077;-66
2021/12/11 03:36:45;;;;;;;1999.90;999.90;;;;;;;2.86;76.32;100243.94;15586899;28;20133;-67
2021/12/11 03:44:31;;;;;;;1999.90;999.90;;;;;;;3.02;75.64;100259.19;15594952;28;20053;-67
2021/12/11 03:52:13;;;;;;;1999.90;999.90;;;;;;;2.80;76.51;100267.13;15584486;28;20541;-68
2021/12/11 04:00:00;;;;;;;1999.90;999.90;;;;;;;2.97;76.39;100275.78;15624561;28;20076;-68
2021/12/11 04:07:39;;;;;;;1999.90;999.90;;;;;;;2.99;76.11;100283.75;15617746;28;20315;-67
2021/12/11 04:15:13;;;;;;;1999.90;999.90;;;;;;;2.74;76.28;100291.19;15596187;28;20046;-66
2021/12/11 04:22:59;;;;;;;1999.90;999.90;;;;;;;2.73;76.47;100306.09;15605081;28;20042;-67
2021/12/11 04:30:42;;;;;;;1999.90;999.90;;;;;;;2.89;75.40;100324.09;15610631;28;20053;-67
2021/12/11 04:38:17;;;;;;;1999.90;999.90;;;;;;;2.63;75.98;100339.22;15605927;28;20045;-67
2021/12/11 04:46:09;;;;;;;1999.90;999.90;;;;;;;2.84;75.89;100357.22;15592743;28;20077;-67
2021/12/11 04:53:56;;;;;;;1999.90;999.90;;;;;;;3.05;75.69;100362.53;15600453;28;20054;-66
2021/12/11 05:01:43;;;;;;;1999.90;999.90;;;;;;;2.79;75.74;100386.75;15597099;28;20056;-65
2021/12/11 05:09:35;;;;;;;1999.90;999.90;;;;;;;3.08;75.14;100390.31;15600977;28;20085;-68
2021/12/11 05:17:28;;;;;;;1999.90;999.90;;;;;;;3.09;74.22;100405.75;15601352;28;20092;-66
2021/12/11 05:25:06;;;;;;;1999.90;999.90;;;;;;;2.92;74.85;100418.31;15597717;28;20454;-67
2021/12/11 05:32:40;;;;;;;1999.90;999.90;;;;;;;3.07;75.02;100438.31;15653226;28;20042;-67
2021/12/11 05:40:18;;;;;;;1999.90;999.90;;;;;;;2.91;74.88;100447.81;15621289;28;20406;-67
2021/12/11 05:47:56;;;;;;;1999.90;999.90;;;;;;;3.03;75.33;100462.06;15589324;28;20050;-66
2021/12/11 05:55:40;;;;;;;1999.90;999.90;;;;;;;2.74;75.59;100462.00;15651078;28;20039;-67
2021/12/11 06:03:15;;;;;;;1999.90;999.90;;;;;;;2.75;75.47;100471.94;15625000;28;20048;-66
2021/12/11 06:10:48;;;;;;;1999.90;999.90;;;;;;;2.93;75.30;100486.13;15582983;28;20103;-67
2021/12/11 06:18:24;;;;;;;1999.90;999.90;;;;;;;2.60;75.99;100505.06;15583501;28;20278;-67
2021/12/11 06:26:23;;;;;;;1999.90;999.90;;;;;;;2.73;75.65;100506.41;15639962;28;20061;-67
2021/12/11 06:34:10;;;;;;;1999.90;999.90;;;;;;;2.65;76.17;100516.06;15575852;28;20064;-66
2021/12/11 06:41:56;;;;;;;1999.90;999.90;;;;;;;2.56;76.91;100553.59;15618299;28;20092;-66
2021/12/11 06:49:34;;;;;;;1999.90;999.90;;;;;;;2.32;76.44;100550.69;15580377;28;20053;-67
2021/12/11 06:57:07;;;;;;;1999.90;999.90;;;;;;;2.57;76.22;100561.56;15584319;28;20057;-68
2021/12/11 07:04:50;;;;;;;;;;;;;;;2.99;74.60;100568.47;15572213;28;20048;-67
2021/12/11 07:12:31;;;;;;;1999.90;999.90;;;;;;;2.90;74.54;100603.25;15581591;28;19925;-67
2021/12/11 07:20:18;;;;;;;1999.90;999.90;;;;;;;3.00;74.73;100621.69;15560342;28;20479;-67
2021/12/11 07:27:58;;;;;;;1999.90;999.90;;;;;;;2.74;74.75;100649.38;15602864;28;20046;-66
2021/12/11 07:35:37;;;;;;;1999.90;999.90;;;;;;;2.83;75.53;100668.91;15553395;28;20050;-66
2021/12/11 07:43:17;;;;;;;1999.90;999.90;;;;;;;2.88;74.55;100699.19;15553673;28;20519;-66
2021/12/11 07:50:51;;;;;;;1999.90;999.90;;;;;;;2.52;75.51;100704.03;15555192;28;20061;-67
2021/12/11 07:58:29;;;;;;;1999.90;999.90;;;;;;;2.81;74.46;100712.44;15582367;28;20133;-66
2021/12/11 08:06:09;;;;;;;;;;;;;;;3.06;74.07;100720.63;15579036;28;20041;-68
2021/12/11 08:13:47;;;;;;;1999.90;999.90;;;;;;;2.88;74.58;100735.03;15575131;28;20275;-67
2021/12/11 08:21:22;;;;;;;1999.90;999.90;;;;;;;3.02;74.63;100747.13;15621244;28;20068;-67
2021/12/11 08:28:54;;;;;;;1999.90;999.90;;;;;;;2.53;75.10;100753.31;15651513;28;20086;-66
2021/12/11 08:36:30;;;;;;;1999.90;999.90;;;;;;;2.90;75.70;100766.72;15686358;28;20076;-67
2021/12/11 08:44:11;;;;;;;1999.90;999.90;;;;;;;2.76;75.26;100773.94;15668231;28;20053;-67
2021/12/11 08:51:54;;;;;;;1999.90;999.90;;;;;;;2.64;75.44;100781.69;15686507;28;20048;-67
2021/12/11 08:59:29;;;;;;;1999.90;999.90;;;;;;;2.62;76.07;100794.09;15684993;28;20124;-67
2021/12/11 09:07:09;;;;;;;1999.90;999.90;;;;;;;2.52;75.55;100805.94;15684090;28;20059;-66
2021/12/11 09:14:48;;;;;;;1999.90;999.90;;;;;;;2.38;75.96;100821.34;15682243;28;20551;-67
2021/12/11 09:22:29;;;;;;;1999.90;999.90;;;;;;;2.64;75.55;100842.28;15683559;28;20045;-67
2021/12/11 09:30:08;;;;;;;;;;;;;;;2.71;75.28;100834.56;15644927;28;20046;-67
2021/12/11 09:37:47;;;;;;;1999.90;999.90;;;;;;;2.46;75.86;100848.34;15621148;28;19928;-67
2021/12/11 09:45:25;;;;;;;1999.90;999.90;;;;;;;2.73;75.21;100856.34;15624069;28;20049;-67
2021/12/11 09:53:01;;;;;;;1999.90;999.90;;;;;;;2.48;75.42;100860.75;15627428;28;20065;-67
2021/12/11 10:00:42;;;;;;;1999.90;999.90;;;;;;;2.76;75.47;100875.06;15633694;28;20075;-67
2021/12/11 10:08:30;;;;;;;1999.90;999.90;;;;;;;2.63;75.96;100884.72;15670162;28;20052;-65
2021/12/11 10:16:05;;;;;;;1999.90;999.90;;;;;;;2.45;75.43;100901.78;15615853;28;20046;-66
2021/12/11 10:23:45;;;;;;;1999.90;999.90;;;;;;;2.18;75.97;100902.84;15615545;28;20148;-61
2021/12/11 10:31:23;;;;;;;1999.90;999.90;;;;;;;2.25;74.56;100903.41;15656053;28;20049;-57
2021/12/11 10:38:59;;;;;;;1999.90;999.90;;;;;;;2.02;75.57;100912.19;15642749;28;20073;-66
2021/12/11 10:46:38;;;;;;;1999.90;999.90;;;;;;;2.21;75.13;100918.03;15553610;28;20412;-67
2021/12/11 10:54:27;;;;;;;1999.90;999.90;;;;;;;2.21;76.01;100918.03;15554309;28;20454;-67
2021/12/11 11:02:10;;;;;;;1999.90;999.90;;;;;;;1.92;76.73;100945.19;15557397;28;20038;-67
2021/12/11 11:10:04;;;;;;;1999.90;999.90;;;;;;;2.35;75.07;100960.44;15561226;28;20062;-67
2021/12/11 11:17:38;;;;;;;1999.90;999.90;;;;;;;2.58;74.76;100964.59;15606847;28;20059;-66
2021/12/11 11:25:19;;;;;;;1999.90;999.90;;;;;;;2.62;74.80;100979.50;15636708;28;20046;-66
2021/12/11 11:32:57;;;;;;;1999.90;999.90;;;;;;;2.43;74.33;100981.13;15668739;28;20060;-66
2021/12/11 11:40:36;;;;;;;1999.90;999.90;;;;;;;2.67;74.70;100990.53;15615205;28;20080;-66
2021/12/11 11:48:16;;;;;;;1999.90;999.90;;;;;;;2.67;74.98;101014.50;15616136;28;20129;-66
2021/12/11 11:56:11;;;;;;;1999.90;999.90;;;;;;;2.83;73.92;101029.97;15624614;28;20053;-66
2021/12/11 12:03:55;;;;;;;1999.90;999.90;;;;;;;2.65;74.29;101036.00;15623986;28;20491;-66
2021/12/11 12:11:42;;;;;;;1999.90;999.90;;;;;;;2.71;74.56;101049.50;15625480;28;20414;-67
2021/12/11 12:19:19;;;;;;;1999.90;999.90;;;;;;;2.88;74.30;101065.78;15624476;28;20049;-66
2021/12/11 12:26:55;;;;;;;1999.90;999.90;;;;;;;3.22;73.00;101082.63;15624150;28;20056;-66
2021/12/11 12:34:43;;;;;;;1999.90;999.90;;;;;;;2.56;74.73;101096.31;15621769;28;20053;-66
2021/12/11 12:42:25;;;;;;;1999.90;999.90;;;;;;;2.90;73.97;101099.41;15622886;28;20048;-67
2021/12/11 12:50:04;;;;;;;1999.90;999.90;;;;;;;2.90;73.59;101114.03;15621632;28;20449;-66
2021/12/11 12:57:50;;;;;;;1999.90;999.90;;;;;;;2.87;73.98;101120.09;15623033;28;20065;-67
2021/12/11 13:05:38;;;;;;;1999.90;999.90;;;;;;;2.77;74.49;101127.50;15627900;28;20112;-66
2021/12/11 13:13:14;;;;;;;1999.90;999.90;;;;;;;2.90;74.41;101138.84;15660845;28;20121;-66
2021/12/11 13:20:52;;;;;;;1999.90;999.90;;;;;;;2.60;74.60;101144.25;15619675;28;20529;-66
2021/12/11 13:28:28;;;;;;;1999.90;999.90;;;;;;;2.78;74.42;101146.53;15619791;28;20075;-66
2021/12/11 13:36:03;;;;;;;1999.90;999.90;;;;;;;2.49;75.19;101181.13;15618911;28;20041;-66
2021/12/11 13:43:36;;;;;;;1999.90;999.90;;;;;;;2.64;74.85;101189.47;15664164;28;20063;-66
2021/12/11 13:51:14;;;;;;;1999.90;999.90;;;;;;;2.55;75.41;101200.16;15693487;28;20040;-66
2021/12/11 13:58:48;;;;;;;1999.90;999.90;;;;;;;2.78;75.20;101218.19;15687992;28;20094;-66
2021/12/11 14:06:26;;;;;;;1999.90;999.90;;;;;;;2.63;75.07;101217.28;15680702;28;20044;-66
2021/12/11 14:13:59;;;;;;;1999.90;999.90;;;;;;;2.78;75.41;101234.72;15665371;28;20128;-66
2021/12/11 14:21:33;;;;;;;1999.90;999.90;;;;;;;2.94;74.33;101249.41;15616415;28;20505;-66
2021/12/11 14:29:08;;;;;;;1999.90;999.90;;;;;;;2.89;74.26;101258.47;15618692;28;20045;-67
2021/12/11 14:36:43;;;;;;;1999.90;999.90;;;;;;;2.88;74.73;101278.88;15576557;28;20064;-63
2021/12/11 14:44:20;;;;;;;1999.90;999.90;;;;;;;2.89;74.65;101280.53;15578030;28;20091;-66
2021/12/11 14:51:56;;;;;;;1999.90;999.90;;;;;;;2.86;75.22;101299.53;15608125;28;20049;-64
2021/12/11 14:59:32;;;;;;;1999.90;999.90;;;;;;;2.91;75.59;101307.81;15604984;28;20501;-63
2021/12/11 15:07:09;;;;;;;1999.90;999.90;;;;;;;2.95;75.61;101328.25;15632174;28;20045;-64
2021/12/11 15:14:44;;;;;;;1999.90;999.90;;;;;;;2.82;76.22;101326.00;15627234;28;20453;-64
2021/12/11 15:22:19;;;;;;;1999.90;999.90;;;;;;;2.84;76.04;101326.53;15634146;28;20038;-65
2021/12/11 15:29:54;;;;;;;1999.90;999.90;;;;;;;2.83;76.28;101335.91;15632830;28;20037;-66
2021/12/11 15:37:29;;;;;;;1999.90;999.90;;;;;;;2.71;76.37;101341.63;15634214;28;20372;-66
2021/12/11 15:45:02;;;;;;;1999.90;999.90;;;;;;;2.65;76.42;101361.97;15634362;28;20054;-66
2021/12/11 15:52:36;;;;;;;1999.90;999.90;;;;;;;2.72;76.60;101372.78;15634929;28;20412;-66
2021/12/11 16:00:10;;;;;;;1999.90;999.90;;;;;;;2.64;77.12;101376.84;15630895;28;20041;-66
2021/12/11 16:07:47;;;;;;;1999.90;999.90;;;;;;;2.65;77.11;101394.22;15586548;28;20128;-66
2021/12/11 16:15:22;;;;;;;1999.90;999.90;;;;;;;2.29;78.11;101405.78;15600458;28;20052;-65
2021/12/11 16:22:57;;;;;;;1999.90;999.90;;;;;;;2.67;77.20;101411.31;15576995;28;20046;-65
2021/12/11 16:30:32;;;;;;;1999.90;999.90;;;;;;;2.48;77.58;101411.69;15649966;28;20041;-65
2021/12/11 16:38:07;;;;;;;1999.90;999.90;;;;;;;2.49;77.80;101413.34;15670265;28;20471;-65
2021/12/11 16:45:45;;;;;;;1999.90;999.90;;;;;;;2.46;77.65;101413.88;15642632;28;20055;-65
2021/12/11 16:53:23;;;;;;;1999.90;999.90;;;;;;;2.71;77.15;101418.81;15619590;28;20048;-66
2021/12/11 17:01:00;;;;;;;1999.90;999.90;;;;;;;2.77;76.66;101441.69;15620409;28;20056;-65
2021/12/11 17:08:34;;;;;;;1999.90;999.90;;;;;;;2.66;77.25;101439.97;15617565;28;20041;-65
2021/12/11 17:16:07;;;;;;;1999.90;999.90;;;;;;;2.54;77.42;101446.47;15628377;28;20083;-67
2021/12/11 17:23:42;;;;;;;1999.90;999.90;;;;;;;2.75;76.99;101457.69;15617277;28;20087;-65
2021/12/11 17:31:17;;;;;;;1999.90;999.90;;;;;;;2.71;76.67;101462.91;15615023;28;20323;-65
2021/12/11 17:38:53;;;;;;;1999.90;999.90;;;;;;;2.23;77.54;101463.81;15600558;28;20530;-65
2021/12/11 17:46:29;;;;;;;1999.90;999.90;;;;;;;1.84;78.63;101463.91;15613385;28;20568;-65
2021/12/11 17:54:09;;;;;;;1999.90;999.90;;;;;;;1.97;78.76;101471.75;15617372;28;20045;-64
2021/12/11 18:01:44;;;;;;;1999.90;999.90;;;;;;;1.68;78.98;101479.41;15626696;28;20041;-64
2021/12/11 18:09:22;;;;;;;1999.90;999.90;;;;;;;1.53;79.48;101487.44;15645837;28;20048;-64
2021/12/11 18:16:59;;;;;;;1999.90;999.90;;;;;;;1.73;78.93;101486.88;15576410;28;20045;-64
2021/12/11 18:24:33;;;;;;;1999.90;999.90;;;;;;;1.37;79.45;101491.06;15579158;28;20494;-64
2021/12/11 18:32:10;;;;;;;1999.90;999.90;;;;;;;1.35;79.32;101506.97;15599232;28;20418;-64
2021/12/11 18:39:52;;;;;;;1999.90;999.90;;;;;;;1.29;79.01;101525.34;15583124;28;20507;-65
2021/12/11 18:47:24;;;;;;;1999.90;999.90;;;;;;;1.22;78.82;101532.91;15588452;28;20148;-64
2021/12/11 18:55:05;;;;;;;1999.90;999.90;;;;;;;1.38;78.40;101543.06;15591712;28;20043;-65
2021/12/11 19:02:45;;;;;;;1999.90;999.90;;;;;;;1.37;78.25;101557.09;15619901;28;20510;-64
2021/12/11 19:10:19;;;;;;;1999.90;999.90;;;;;;;1.30;78.62;101560.00;15622260;28;20108;-66
2021/12/11 19:17:53;;;;;;;1999.90;999.90;;;;;;;1.41;78.12;101569.22;15644775;28;20052;-63
2021/12/11 19:25:29;;;;;;;1999.90;999.90;;;;;;;1.00;79.03;101576.81;15658493;28;20114;-65
2021/12/11 19:33:08;;;;;;;1999.90;999.90;;;;;;;1.11;77.89;101573.16;15613174;28;20411;-64
2021/12/11 19:40:46;;;;;;;1999.90;999.90;;;;;;;1.34;77.95;101585.91;15572883;28;20100;-66
2021/12/11 19:48:21;;;;;;;1999.90;999.90;;;;;;;1.25;79.16;101587.41;15628458;28;20460;-65
2021/12/11 19:55:59;;;;;;;1999.90;999.90;;;;;;;1.13;78.88;101600.38;15633918;28;20042;-64
2021/12/11 20:03:33;;;;;;;1999.90;999.90;;;;;;;1.33;78.74;101614.47;15583217;28;20438;-65
2021/12/11 20:11:12;;;;;;;1999.90;999.90;;;;;;;1.18;78.61;101625.22;15602549;28;20033;-61
2021/12/11 20:18:49;;;;;;;1999.90;999.90;;;;;;;1.09;78.92;101634.97;15599467;28;20053;-61
2021/12/11 20:26:27;;;;;;;1999.90;999.90;;;;;;;1.19;77.82;101639.81;15616188;28;20464;-64
2021/12/11 20:34:03;;;;;;;1999.90;999.90;;;;;;;0.89;79.02;101656.56;15605431;28;20037;-63
2021/12/11 20:41:39;;;;;;;;;;;;;;;1.28;78.43;101663.06;15615745;28;20061;-62
2021/12/11 20:49:12;;;;;;;1999.90;999.90;;;;;;;0.95;79.28;101655.59;15605337;28;19921;-64
2021/12/11 20:56:47;;;;;;;1999.90;999.90;;;;;;;1.00;78.81;101662.00;15608914;28;20553;-64
2021/12/11 21:04:25;;;;;;;1999.90;999.90;;;;;;;0.77;79.30;101664.88;15597687;28;20561;-64
2021/12/11 21:12:09;;;;;;;1999.90;999.90;;;;;;;0.79;79.46;101674.53;15610945;28;20049;-65
2021/12/11 21:19:44;;;;;;;1999.90;999.90;;;;;;;0.84;79.80;101676.56;15598298;28;20425;-64
2021/12/11 21:27:25;;;;;;;1999.90;999.90;;;;;;;1.28;78.33;101672.16;15617143;28;20049;-64
2021/12/11 21:35:04;;;;;;;1999.90;999.90;;;;;;;1.13;79.02;101677.38;15608764;28;20140;-61
2021/12/11 21:42:44;;;;;;;1999.90;999.90;;;;;;;1.17;78.55;101683.22;15604529;28;20103;-61
2021/12/11 21:50:22;;;;;;;1999.90;999.90;;;;;;;1.18;78.58;101693.97;15600095;28;20045;-64
2021/12/11 21:58:00;;;;;;;1999.90;999.90;;;;;;;1.07;78.45;101697.63;15621968;28;20132;-66
2021/12/11 22:05:39;;;;;;;1999.90;999.90;;;;;;;0.84;80.16;101699.38;15638501;28;20520;-68
2021/12/11 22:13:16;;;;;;;1999.90;999.90;;;;;;;1.01;79.02;101718.66;15607452;28;20041;-62
2021/12/11 22:20:56;;;;;;;1999.90;999.90;;;;;;;1.05;78.81;101725.34;15568362;28;20044;-65
2021/12/11 22:28:31;;;;;;;1999.90;999.90;;;;;;;1.01;79.36;101735.16;15555019;28;20590;-64
2021/12/11 22:36:32;;;;;;;1999.90;999.90;;;;;;;0.95;79.51;101752.63;15615892;28;20043;-61
2021/12/11 22:44:20;;;;;;;1999.90;999.90;;;;;;;0.97;79.46;101747.72;15617738;28;20045;-64
2021/12/11 22:52:25;;;;;;;1999.90;999.90;;;;;;;1.01;78.58;101748.06;15633298;28;20069;-63
2021/12/11 23:00:24;;;;;;;1999.90;999.90;;;;;;;1.11;78.32;101765.59;15616575;28;20073;-61
2021/12/11 23:08:04;;;;;;;1999.90;999.90;;;;;;;1.05;77.93;101761.09;15592968;28;20045;-63
2021/12/11 23:15:44;;;;;;;1999.90;999.90;;;;;;;1.10;78.52;101763.91;15576684;28;20053;-64
2021/12/11 23:23:23;;;;;;;1999.90;999.90;;;;;;;1.09;78.14;101766.91;15598096;28;20049;-65
2021/12/11 23:31:59;;;;;;;;;;;;;;;;;;;;;
2021/12/11 23:39:57;;;;;;;1999.90;999.90;;;;;;;1.33;77.47;101779.50;15587439;28;20045;-65
2021/12/11 23:47:37;;;;;;;1999.90;999.90;;;;;;;1.24;77.89;101775.47;15577420;28;20046;-64
2021/12/11 23:55:40;;;;;;;1999.90;999.90;;;;;;;1.03;77.94;101774.22;15618553;28;20069;-64
